createdAt,value
2023-09-12T00:01:13.690Z,79.32
2023-09-12T00:03:41.496Z,76.67
2023-09-12T00:06:08.945Z,76.35
2023-09-12T00:08:36.326Z,76.52
2023-09-12T00:11:07.702Z,79.02
2023-09-12T00:13:35.156Z,80.59
2023-09-12T00:16:03.401Z,79.91
2023-09-12T00:18:31.297Z,80.03
2023-09-12T00:21:02.199Z,79.11
2023-09-12T00:23:29.894Z,77.19
2023-09-12T00:25:58.548Z,77.59
2023-09-12T00:28:26.097Z,78.27
2023-09-12T00:30:54.103Z,78.55
2023-09-12T00:33:22.033Z,78.17
2023-09-12T00:35:49.505Z,78.45
2023-09-12T00:38:16.822Z,78.57
2023-09-12T00:40:44.464Z,78.52
2023-09-12T00:43:12.068Z,78.96
2023-09-12T00:45:39.819Z,79.54
2023-09-12T00:48:09.166Z,78.11
2023-09-12T00:50:37.924Z,77.87
2023-09-12T00:53:05.776Z,77.75
2023-09-12T00:55:36.224Z,78.97
2023-09-12T00:58:04.102Z,78.50
2023-09-12T01:00:31.873Z,78.26
2023-09-12T01:02:59.851Z,78.03
2023-09-12T01:05:28.450Z,77.67
2023-09-12T01:07:57.038Z,75.96
2023-09-12T01:10:24.919Z,76.33
2023-09-12T01:12:53.423Z,77.03
2023-09-12T01:15:21.401Z,78.77
2023-09-12T01:17:50.851Z,78.68
2023-09-12T01:20:35.441Z,79.08
2023-09-12T01:23:41.889Z,79.14
2023-09-12T01:26:12.227Z,80.37
2023-09-12T01:28:44.333Z,80.32
2023-09-12T01:31:14.466Z,81.37
2023-09-12T01:33:42.344Z,82.11
2023-09-12T01:36:11.714Z,82.18
2023-09-12T01:38:39.401Z,82.74
2023-09-12T01:41:08.099Z,80.55
2023-09-12T01:43:37.690Z,81.35
2023-09-12T01:46:05.259Z,82.36
2023-09-12T01:48:35.979Z,81.50
2023-09-12T01:51:05.544Z,80.41
2023-09-12T01:53:35.664Z,80.97
2023-09-12T01:56:03.319Z,80.84
2023-09-12T01:58:32.744Z,81.92
2023-09-12T02:01:00.840Z,82.54
2023-09-12T02:03:28.760Z,82.43
2023-09-12T02:05:56.212Z,81.78
2023-09-12T02:08:23.653Z,81.75
2023-09-12T02:10:51.412Z,81.23
2023-09-12T02:13:18.983Z,80.36
2023-09-12T02:15:46.562Z,80.17
2023-09-12T02:18:14.526Z,80.53
2023-09-12T02:20:47.051Z,80.03
2023-09-12T02:23:16.457Z,82.66
2023-09-12T02:25:44.244Z,81.92
2023-09-12T02:28:11.726Z,81.87
2023-09-12T02:30:42.148Z,81.27
2023-09-12T02:33:10.730Z,80.56
2023-09-12T02:35:38.205Z,80.62
2023-09-12T02:38:05.599Z,80.04
2023-09-12T02:40:33.434Z,80.27
2023-09-12T02:43:00.899Z,81.12
2023-09-12T02:45:28.626Z,80.62
2023-09-12T02:47:56.601Z,80.44
2023-09-12T02:50:24.146Z,80.71
2023-09-12T02:52:51.671Z,81.21
2023-09-12T02:55:19.589Z,80.40
2023-09-12T02:57:48.302Z,80.65
2023-09-12T03:00:15.942Z,80.10
2023-09-12T03:02:43.863Z,79.57
2023-09-12T03:05:12.162Z,82.14
2023-09-12T03:07:39.482Z,82.38
2023-09-12T03:10:07.686Z,83.78
2023-09-12T03:12:38.320Z,84.04
2023-09-12T03:15:08.945Z,82.45
2023-09-12T03:17:38.503Z,82.06
2023-09-12T03:20:09.574Z,82.40
2023-09-12T03:22:40.135Z,83.67
2023-09-12T03:25:08.296Z,83.27
2023-09-12T03:27:35.921Z,82.75
2023-09-12T03:30:05.276Z,82.22
2023-09-12T03:32:33.126Z,81.27
2023-09-12T03:35:00.662Z,81.74
2023-09-12T03:37:29.834Z,83.01
2023-09-12T03:39:58.133Z,82.69
2023-09-12T03:42:31.983Z,81.84
2023-09-12T03:45:06.947Z,82.19
2023-09-12T03:47:34.439Z,81.89
2023-09-12T03:50:02.101Z,82.45
2023-09-12T03:52:30.108Z,83.13
2023-09-12T03:54:58.904Z,82.90
2023-09-12T03:57:29.122Z,82.45
2023-09-12T03:59:57.140Z,82.54
2023-09-12T04:02:24.868Z,82.66
2023-09-12T04:04:53.364Z,82.85
2023-09-12T04:07:20.982Z,82.24
2023-09-12T04:09:48.469Z,81.44
2023-09-12T04:12:16.274Z,80.99
2023-09-12T04:14:43.962Z,80.30
2023-09-12T04:17:11.547Z,80.39
2023-09-12T04:19:39.258Z,80.92
2023-09-12T04:22:07.069Z,81.53
2023-09-12T04:24:34.748Z,83.60
2023-09-12T04:27:02.730Z,83.59
2023-09-12T04:29:30.488Z,82.90
2023-09-12T04:32:00.940Z,82.37
2023-09-12T04:34:29.126Z,82.38
2023-09-12T04:36:56.623Z,81.93
2023-09-12T04:39:24.522Z,81.84
2023-09-12T04:41:52.357Z,81.86
2023-09-12T04:44:19.774Z,81.84
2023-09-12T04:46:47.832Z,81.46
2023-09-12T04:49:15.938Z,81.24
2023-09-12T04:51:44.234Z,80.85
2023-09-12T04:54:11.920Z,81.20
2023-09-12T04:56:39.703Z,82.13
2023-09-12T04:59:08.064Z,83.22
2023-09-12T05:01:35.684Z,83.74
2023-09-12T05:04:04.535Z,84.42
2023-09-12T05:06:35.642Z,84.38
2023-09-12T05:09:04.489Z,84.88
2023-09-12T05:11:32.174Z,84.28
2023-09-12T05:14:01.173Z,83.45
2023-09-12T05:16:29.055Z,83.64
2023-09-12T05:18:56.776Z,83.43
2023-09-12T05:21:24.750Z,85.51
2023-09-12T05:23:52.787Z,85.37
2023-09-12T05:26:23.286Z,87.52
2023-09-12T05:28:51.657Z,87.21
2023-09-12T05:31:20.223Z,89.24
2023-09-12T05:33:48.382Z,91.46
2023-09-12T05:36:16.055Z,90.28
2023-09-12T05:38:44.163Z,89.52
2023-09-12T05:41:11.866Z,88.95
2023-09-12T05:43:39.245Z,89.78
2023-09-12T05:46:07.046Z,88.37
2023-09-12T05:48:34.641Z,86.97
2023-09-12T05:51:02.191Z,86.12
2023-09-12T05:53:31.824Z,85.55
2023-09-12T05:55:59.344Z,85.19
2023-09-12T05:58:27.073Z,83.85
2023-09-12T06:00:54.962Z,82.41
2023-09-12T06:03:24.092Z,83.28
2023-09-12T06:05:52.322Z,84.01
2023-09-12T06:08:19.792Z,82.79
2023-09-12T06:10:47.676Z,81.98
2023-09-12T06:13:15.082Z,81.46
2023-09-12T06:15:43.035Z,80.96
2023-09-12T06:18:11.025Z,81.87
2023-09-12T06:20:39.237Z,82.32
2023-09-12T06:23:06.776Z,81.14
2023-09-12T06:25:36.649Z,83.27
2023-09-12T06:28:04.582Z,81.70
2023-09-12T06:30:32.098Z,81.16
2023-09-12T06:33:02.524Z,81.77
2023-09-12T06:35:30.481Z,81.23
2023-09-12T06:37:58.189Z,80.31
2023-09-12T06:40:26.019Z,80.87
2023-09-12T06:42:53.374Z,81.69
2023-09-12T06:45:20.824Z,79.44
2023-09-12T06:47:48.744Z,78.69
2023-09-12T06:50:16.605Z,78.87
2023-09-12T06:52:44.500Z,77.41
2023-09-12T06:55:12.488Z,74.37
2023-09-12T06:57:40.682Z,73.61
2023-09-12T07:00:08.957Z,73.18
2023-09-12T07:02:36.803Z,72.46
2023-09-12T07:05:05.151Z,70.47
2023-09-12T07:07:32.704Z,69.65
2023-09-12T07:10:16.155Z,68.74
2023-09-12T07:12:44.101Z,69.60
2023-09-12T07:15:11.936Z,68.50
2023-09-12T07:17:39.420Z,66.48
2023-09-12T07:20:12.737Z,65.05
2023-09-12T07:22:43.726Z,65.19
2023-09-12T07:25:13.226Z,63.57
2023-09-12T07:27:41.219Z,64.83
2023-09-12T07:30:09.414Z,61.02
2023-09-12T07:32:37.138Z,59.52
2023-09-12T07:35:05.537Z,58.83
2023-09-12T07:37:33.509Z,57.21
2023-09-12T07:40:01.238Z,57.56
2023-09-12T07:42:29.591Z,55.64
2023-09-12T07:44:57.014Z,55.76
2023-09-12T07:47:24.424Z,54.14
2023-09-12T07:49:55.230Z,53.55
2023-09-12T07:52:23.946Z,52.82
2023-09-12T07:54:54.041Z,51.96
2023-09-12T07:57:21.582Z,50.51
2023-09-12T07:59:48.932Z,50.97
2023-09-12T08:02:16.840Z,48.73
2023-09-12T08:04:44.770Z,47.10
2023-09-12T08:07:12.502Z,46.72
2023-09-12T08:09:54.352Z,44.45
2023-09-12T08:12:23.984Z,42.91
2023-09-12T08:14:51.361Z,42.35
2023-09-12T08:17:19.012Z,42.12
2023-09-12T08:19:46.926Z,40.72
2023-09-12T08:22:14.779Z,41.23
2023-09-12T08:24:42.449Z,40.86
2023-09-12T08:27:11.309Z,39.38
2023-09-12T08:29:39.578Z,39.99
2023-09-12T08:32:07.174Z,39.59
2023-09-12T08:34:35.080Z,39.58
2023-09-12T08:37:02.645Z,38.59
2023-09-12T08:39:43.321Z,39.62
2023-09-12T08:42:16.168Z,39.78
2023-09-12T08:44:44.677Z,40.42
2023-09-12T08:47:13.618Z,38.72
2023-09-12T08:49:43.836Z,38.79
2023-09-12T08:52:11.729Z,38.56
2023-09-12T08:54:39.167Z,38.33
2023-09-12T08:57:08.447Z,38.27
2023-09-12T08:59:38.537Z,37.66
2023-09-12T09:02:10.236Z,37.73
2023-09-12T09:04:40.676Z,37.17
2023-09-12T09:07:10.340Z,38.43
2023-09-12T09:09:38.140Z,38.61
2023-09-12T09:12:09.992Z,38.28
2023-09-12T09:14:37.995Z,37.43
2023-09-12T09:17:05.569Z,37.15
2023-09-12T09:19:51.126Z,37.93
2023-09-12T09:22:18.989Z,37.11
2023-09-12T09:24:46.492Z,37.62
2023-09-12T09:27:34.194Z,36.06
2023-09-12T09:30:02.068Z,33.78
2023-09-12T09:32:29.511Z,35.08
2023-09-12T09:34:56.893Z,34.77
2023-09-12T09:37:24.731Z,34.90
2023-09-12T09:39:53.739Z,35.31
2023-09-12T09:42:21.434Z,35.51
2023-09-12T09:44:50.206Z,34.65
2023-09-12T09:47:20.248Z,34.34
2023-09-12T09:49:48.786Z,31.10
2023-09-12T09:52:16.494Z,34.86
2023-09-12T09:54:47.099Z,33.98
2023-09-12T09:57:14.466Z,33.67
2023-09-12T09:59:42.463Z,33.64
2023-09-12T10:02:20.669Z,35.67
2023-09-12T10:05:00.410Z,32.93
2023-09-12T10:07:29.978Z,32.19
2023-09-12T10:09:59.399Z,33.70
2023-09-12T10:12:29.986Z,34.81
2023-09-12T10:15:00.712Z,33.75
2023-09-12T10:17:37.049Z,32.95
2023-09-12T10:20:12.669Z,33.02
2023-09-12T10:23:38.372Z,32.04
2023-09-12T10:26:06.582Z,33.42
2023-09-12T10:28:34.355Z,32.75
2023-09-12T10:31:03.200Z,31.96
2023-09-12T10:33:32.830Z,31.30
2023-09-12T10:36:01.107Z,30.46
2023-09-12T10:38:31.366Z,32.00
2023-09-12T10:41:01.996Z,29.69
2023-09-12T10:43:31.263Z,30.58
2023-09-12T10:46:00.727Z,30.21
2023-09-12T10:48:28.173Z,29.96
2023-09-12T10:51:00.696Z,29.90
2023-09-12T10:53:31.312Z,29.58
2023-09-12T10:56:14.042Z,29.24
2023-09-12T10:59:07.746Z,28.09
2023-09-12T11:01:43.700Z,28.75
2023-09-12T11:04:20.680Z,28.36
2023-09-12T11:06:51.466Z,28.25
2023-09-12T11:09:23.462Z,28.00
2023-09-12T11:11:56.907Z,28.87
2023-09-12T11:14:25.613Z,28.65
2023-09-12T11:17:19.294Z,28.07
2023-09-12T11:19:54.551Z,28.25
2023-09-12T11:22:30.546Z,29.31
2023-09-12T11:24:58.553Z,27.83
2023-09-12T11:27:32.408Z,28.52
2023-09-12T11:30:07.354Z,28.39
2023-09-12T11:32:38.242Z,28.91
2023-09-12T11:35:08.556Z,28.10
2023-09-12T11:37:39.090Z,29.19
2023-09-12T11:40:12.983Z,28.54
2023-09-12T11:42:44.905Z,28.42
2023-09-12T11:45:13.131Z,28.47
2023-09-12T11:47:44.767Z,27.68
2023-09-12T11:50:36.808Z,28.91
2023-09-12T11:53:07.068Z,27.56
2023-09-12T11:55:46.699Z,27.67
2023-09-12T11:58:19.660Z,26.61
2023-09-12T12:00:51.257Z,26.41
2023-09-12T12:03:23.789Z,26.35
2023-09-12T12:05:52.681Z,27.73
2023-09-12T12:10:52.306Z,25.97
2023-09-12T12:13:21.283Z,26.63
2023-09-12T12:15:49.112Z,27.57
2023-09-12T12:18:16.761Z,26.16
2023-09-12T12:20:44.600Z,26.40
2023-09-12T12:23:12.399Z,26.37
2023-09-12T12:25:39.799Z,25.84
2023-09-12T12:28:07.555Z,26.39
2023-09-12T12:30:36.890Z,24.84
2023-09-12T12:33:37.560Z,25.79
2023-09-12T12:36:04.032Z,26.16
2023-09-12T12:38:46.666Z,25.32
2023-09-12T12:41:41.860Z,25.38
2023-09-12T12:44:17.309Z,26.66
2023-09-12T12:46:52.004Z,25.67
2023-09-12T12:49:24.389Z,25.04
2023-09-12T12:51:54.471Z,26.02
2023-09-12T12:54:24.518Z,25.00
2023-09-12T12:56:54.291Z,24.95
2023-09-12T12:59:21.676Z,24.98
2023-09-12T13:01:51.135Z,25.18
2023-09-12T13:04:20.530Z,24.57
2023-09-12T13:06:48.158Z,25.57
2023-09-12T13:09:18.231Z,25.68
2023-09-12T13:11:47.041Z,24.61
2023-09-12T13:14:15.659Z,25.25
2023-09-12T13:16:43.324Z,24.49
2023-09-12T13:19:12.622Z,25.72
2023-09-12T13:21:40.461Z,26.41
2023-09-12T13:24:08.177Z,25.12
2023-09-12T13:26:35.962Z,26.91
2023-09-12T13:29:03.997Z,27.34
2023-09-12T13:31:31.455Z,27.75
2023-09-12T13:33:59.414Z,26.79
2023-09-12T13:36:26.851Z,27.02
2023-09-12T13:38:54.199Z,26.01
2023-09-12T13:41:23.555Z,26.69
2023-09-12T13:43:50.919Z,26.41
2023-09-12T13:46:18.417Z,26.90
2023-09-12T13:48:47.669Z,26.41
2023-09-12T13:51:16.272Z,26.60
2023-09-12T13:53:43.992Z,26.23
2023-09-12T13:56:11.735Z,26.24
2023-09-12T13:58:42.976Z,26.85
2023-09-12T14:01:16.703Z,26.09
2023-09-12T14:03:55.125Z,26.47
2023-09-12T14:06:23.333Z,27.45
2023-09-12T14:08:50.938Z,26.69
2023-09-12T14:11:30.385Z,25.94
2023-09-12T14:14:11.132Z,25.55
2023-09-12T14:16:42.084Z,25.64
2023-09-12T14:19:11.873Z,25.20
2023-09-12T14:21:39.660Z,25.41
2023-09-12T14:24:08.171Z,25.63
2023-09-12T14:26:35.580Z,23.94
2023-09-12T14:29:03.380Z,23.67
2023-09-12T14:31:31.407Z,24.14
2023-09-12T14:33:59.260Z,23.19
2023-09-12T14:36:26.627Z,23.37
2023-09-12T14:38:54.309Z,22.99
2023-09-12T14:41:21.692Z,23.10
2023-09-12T14:43:49.044Z,23.31
2023-09-12T14:46:16.880Z,21.82
2023-09-12T14:48:56.500Z,21.29
2023-09-12T14:51:33.760Z,21.94
2023-09-12T14:54:02.784Z,22.10
2023-09-12T14:56:31.695Z,21.07
2023-09-12T14:58:59.064Z,21.35
2023-09-12T15:01:26.604Z,21.90
2023-09-12T15:03:54.510Z,21.83
2023-09-12T15:06:22.486Z,21.98
2023-09-12T15:08:53.202Z,21.10
2023-09-12T15:11:22.010Z,21.67
2023-09-12T15:13:50.051Z,21.77
2023-09-12T15:16:18.861Z,21.66
2023-09-12T15:18:47.751Z,21.33
2023-09-12T15:21:15.251Z,21.06
2023-09-12T15:23:42.960Z,20.39
2023-09-12T15:26:11.152Z,21.22
2023-09-12T15:28:38.877Z,21.40
2023-09-12T15:31:06.586Z,21.82
2023-09-12T15:33:34.487Z,22.87
2023-09-12T15:36:02.249Z,22.58
2023-09-12T15:38:30.103Z,21.76
2023-09-12T15:40:59.676Z,22.29
2023-09-12T15:43:28.067Z,22.00
2023-09-12T15:45:55.812Z,23.76
2023-09-12T15:48:23.864Z,25.41
2023-09-12T15:50:52.130Z,26.84
2023-09-12T15:53:19.535Z,27.88
2023-09-12T15:55:49.890Z,28.91
2023-09-12T15:58:17.439Z,29.07
2023-09-12T16:00:44.784Z,29.04
2023-09-12T16:03:12.815Z,30.40
2023-09-12T16:05:40.544Z,30.70
2023-09-12T16:08:09.080Z,31.66
2023-09-12T16:10:37.951Z,31.67
2023-09-12T16:13:05.789Z,31.48
2023-09-12T16:15:35.490Z,33.35
2023-09-12T16:18:03.586Z,32.76
2023-09-12T16:20:30.908Z,32.47
2023-09-12T16:22:58.323Z,32.66
2023-09-12T16:25:26.066Z,32.62
2023-09-12T16:27:54.036Z,33.60
2023-09-12T16:30:21.694Z,34.34
2023-09-12T16:32:49.486Z,34.29
2023-09-12T16:35:17.121Z,34.97
2023-09-12T16:37:44.498Z,35.92
2023-09-12T16:40:12.808Z,36.52
2023-09-12T16:42:40.600Z,37.05
2023-09-12T16:49:24.464Z,41.36
2023-09-12T16:52:10.825Z,42.29
2023-09-12T17:04:12.527Z,45.27
2023-09-12T17:08:03.970Z,46.42
2023-09-12T17:20:15.120Z,46.58
2023-09-12T17:22:43.163Z,47.36
2023-09-12T17:25:13.980Z,47.18
2023-09-12T17:27:41.918Z,47.90
2023-09-12T17:30:11.648Z,48.72
2023-09-12T17:32:39.118Z,48.28
2023-09-12T17:35:06.903Z,48.63
2023-09-12T17:37:35.209Z,48.45
2023-09-12T17:40:02.829Z,48.93
2023-09-12T17:42:32.102Z,49.03
2023-09-12T17:45:00.306Z,49.19
2023-09-12T17:47:28.379Z,50.13
2023-09-12T17:49:57.657Z,52.95
2023-09-12T17:52:25.487Z,52.16
2023-09-12T17:54:52.930Z,51.84
2023-09-12T17:57:20.418Z,50.66
2023-09-12T17:59:49.737Z,51.36
2023-09-12T18:02:17.182Z,52.81
2023-09-12T18:04:45.136Z,53.01
2023-09-12T18:07:12.773Z,52.69
2023-09-12T18:09:40.730Z,52.95
2023-09-12T18:12:08.574Z,52.44
2023-09-12T18:14:36.108Z,52.66
2023-09-12T18:17:03.917Z,53.51
2023-09-12T18:19:32.105Z,54.42
2023-09-12T18:22:01.256Z,54.33
2023-09-12T18:24:28.887Z,55.29
2023-09-12T18:26:59.838Z,55.59
2023-09-12T18:29:27.400Z,57.47
2023-09-12T18:31:55.737Z,56.87
2023-09-12T18:34:23.521Z,55.28
2023-09-12T18:36:51.130Z,55.08
2023-09-12T18:39:19.365Z,54.21
2023-09-12T18:41:48.028Z,55.35
2023-09-12T18:44:15.668Z,56.03
2023-09-12T18:46:43.333Z,56.75
2023-09-12T18:49:12.009Z,57.65
2023-09-12T18:51:39.756Z,57.81
2023-09-12T18:54:07.362Z,58.52
2023-09-12T18:56:35.124Z,59.01
2023-09-12T18:59:03.056Z,58.65
2023-09-12T19:01:30.797Z,58.79
2023-09-12T19:03:58.759Z,58.37
2023-09-12T19:06:26.278Z,57.58
2023-09-12T19:08:53.729Z,57.06
2023-09-12T19:11:23.464Z,57.11
2023-09-12T19:13:50.919Z,57.98
2023-09-12T19:16:18.556Z,58.83
2023-09-12T19:18:47.509Z,58.86
2023-09-12T19:21:14.936Z,58.70
2023-09-12T19:23:42.696Z,59.04
2023-09-12T19:26:10.681Z,61.53
2023-09-12T19:28:38.129Z,62.25
2023-09-12T19:31:05.709Z,62.98
2023-09-12T19:33:33.738Z,62.73
2023-09-12T19:36:01.291Z,62.17
2023-09-12T19:38:28.724Z,61.49
2023-09-12T19:41:00.978Z,62.69
2023-09-12T19:43:28.494Z,63.05
2023-09-12T19:45:57.587Z,63.73
2023-09-12T19:48:25.271Z,63.21
2023-09-12T19:50:52.839Z,63.04
2023-09-12T19:53:20.899Z,61.37
2023-09-12T19:55:59.463Z,61.82
2023-09-12T19:58:27.850Z,63.36
2023-09-12T20:00:59.879Z,62.78
2023-09-12T20:03:28.597Z,62.90
2023-09-12T20:05:56.079Z,62.29
2023-09-12T20:08:24.254Z,61.93
2023-09-12T20:10:52.405Z,62.12
2023-09-12T20:13:19.987Z,62.04
2023-09-12T20:15:47.526Z,62.53
2023-09-12T20:18:15.399Z,62.85
2023-09-12T20:20:46.895Z,63.77
2023-09-12T20:23:14.842Z,64.45
2023-09-12T20:25:43.499Z,63.97
2023-09-12T20:28:13.103Z,64.16
2023-09-12T20:30:41.367Z,64.60
2023-09-12T20:33:08.906Z,64.60
2023-09-12T20:35:36.666Z,65.65
2023-09-12T20:38:06.169Z,66.14
2023-09-12T20:40:34.016Z,65.72
2023-09-12T20:43:01.646Z,65.99
2023-09-12T20:45:29.647Z,65.75
2023-09-12T20:47:57.110Z,65.75
2023-09-12T20:50:28.582Z,66.42
2023-09-12T20:53:06.303Z,66.14
2023-09-12T20:55:38.620Z,67.19
2023-09-12T20:58:06.740Z,68.79
2023-09-12T21:00:34.499Z,68.62
2023-09-12T21:03:02.120Z,67.67
2023-09-12T21:05:29.986Z,67.73
2023-09-12T21:07:58.250Z,68.49
2023-09-12T21:10:25.705Z,69.30
2023-09-12T21:12:53.485Z,68.87
2023-09-12T21:15:23.962Z,68.20
2023-09-12T21:17:52.013Z,69.01
2023-09-12T21:20:20.136Z,69.79
2023-09-12T21:22:47.690Z,69.74
2023-09-12T21:25:15.217Z,69.09
2023-09-12T21:27:43.033Z,70.27
2023-09-12T21:30:11.319Z,69.75
2023-09-12T21:32:38.718Z,70.30
2023-09-12T21:35:16.222Z,70.38
2023-09-12T21:37:44.865Z,69.26
2023-09-12T21:40:14.240Z,70.65
2023-09-12T21:42:42.109Z,71.27
2023-09-12T21:45:14.732Z,70.87
2023-09-12T21:47:44.143Z,70.68
2023-09-12T21:50:11.616Z,70.39
2023-09-12T21:52:39.439Z,70.84
2023-09-12T21:55:08.601Z,71.52
2023-09-12T21:57:36.555Z,70.57
2023-09-12T22:00:24.681Z,69.73
2023-09-12T22:02:53.407Z,70.13
2023-09-12T22:05:21.216Z,70.36
2023-09-12T22:07:49.228Z,70.99
2023-09-12T22:10:17.902Z,71.47
2023-09-12T22:12:46.179Z,71.50
2023-09-12T22:15:13.852Z,72.28
2023-09-12T22:17:41.438Z,71.70
2023-09-12T22:20:13.936Z,72.04
2023-09-12T22:22:43.988Z,72.92
2023-09-12T22:25:12.100Z,73.82
2023-09-12T22:27:40.684Z,74.97
2023-09-12T22:30:09.252Z,74.74
2023-09-12T22:32:38.416Z,72.77
2023-09-12T22:35:06.083Z,72.88
2023-09-12T22:37:33.641Z,72.99
2023-09-12T22:40:01.064Z,72.43
2023-09-12T22:42:28.807Z,73.55
2023-09-12T22:44:56.393Z,73.54
2023-09-12T22:47:23.753Z,72.76
2023-09-12T22:49:52.582Z,73.67
2023-09-12T22:52:20.690Z,73.73
2023-09-12T22:54:48.108Z,72.47
2023-09-12T22:57:15.497Z,72.68
2023-09-12T22:59:43.215Z,72.69
2023-09-12T23:02:10.591Z,72.63
2023-09-12T23:04:38.036Z,72.74
2023-09-12T23:07:05.838Z,72.81
2023-09-12T23:09:33.414Z,72.79
2023-09-12T23:12:00.795Z,73.34
2023-09-12T23:14:28.567Z,73.48
2023-09-12T23:16:56.007Z,74.46
2023-09-12T23:19:23.580Z,74.78
2023-09-12T23:21:51.452Z,74.87
2023-09-12T23:24:18.873Z,74.63
2023-09-12T23:26:46.332Z,75.07
2023-09-12T23:29:14.039Z,75.35
2023-09-12T23:31:41.479Z,76.23
2023-09-12T23:34:08.917Z,75.78
2023-09-12T23:36:36.778Z,75.51
2023-09-12T23:39:05.798Z,76.58
2023-09-12T23:41:33.209Z,77.92
2023-09-12T23:44:00.810Z,79.47
2023-09-12T23:46:28.614Z,79.19
2023-09-12T23:48:55.971Z,78.06
2023-09-12T23:51:23.720Z,77.16
2023-09-12T23:53:50.963Z,76.84
2023-09-12T23:56:18.268Z,76.86
2023-09-12T23:58:45.984Z,76.22
